Time;durP1;ratioP1;P1;durP2;ratioP2;P2;SDS_P1;SDS_P2;PMS_P1;PMS_P2;Temp;Humidity;BMP_temperature;BMP_pressure;BME280_temperature;BME280_humidity;BME280_pressure;Samples;Min_cycle;Max_cycle;Signal;HPM_P1;HPM_P2
2023/06/20 00:02:14;;;;;;;5.55;4.50;;;22.30;60.90;;;;;;5024564;28;20041;-66
2023/06/20 00:04:40;;;;;;;5.18;4.72;;;22.40;61.00;;;;;;5033208;28;20033;-65
2023/06/20 00:07:06;;;;;;;5.38;4.70;;;22.40;61.10;;;;;;5033814;28;20598;-65
2023/06/20 00:09:31;;;;;;;4.60;4.20;;;22.40;61.20;;;;;;5032601;28;20033;-64
2023/06/20 00:11:57;;;;;;;4.97;4.07;;;22.30;61.30;;;;;;5021969;28;20041;-65
2023/06/20 00:14:23;;;;;;;4.45;4.00;;;22.20;61.30;;;;;;5030683;28;20072;-65
2023/06/20 00:16:49;;;;;;;4.60;4.20;;;22.20;61.70;;;;;;5027554;28;20052;-65
2023/06/20 00:19:14;;;;;;;5.13;4.13;;;22.00;61.70;;;;;;5028877;28;20041;-65
2023/06/20 00:21:40;;;;;;;4.35;3.95;;;21.90;62.00;;;;;;5028545;28;20037;-65
2023/06/20 00:24:09;;;;;;;5.43;3.80;;;21.80;62.30;;;;;;5026551;28;20536;-65
2023/06/20 00:26:38;;;;;;;7.28;4.18;;;21.70;63.00;;;;;;5024061;28;20570;-64
2023/06/20 00:29:04;;;;;;;3.80;3.50;;;21.60;63.40;;;;;;5025620;28;20497;-65
2023/06/20 00:31:30;;;;;;;4.55;4.15;;;21.60;63.30;;;;;;5026781;28;20031;-65
2023/06/20 00:33:55;;;;;;;4.78;4.28;;;21.50;63.60;;;;;;5026135;28;20044;-65
2023/06/20 00:36:25;;;;;;;4.03;3.72;;;21.50;64.00;;;;;;5028159;28;20136;-66
2023/06/20 00:38:56;;;;;;;6.43;4.07;;;21.50;64.20;;;;;;5024571;28;20463;-66
2023/06/20 00:41:23;;;;;;;7.38;4.30;;;21.50;65.50;;;;;;5026061;28;20092;-65
2023/06/20 00:43:49;;;;;;;4.35;3.97;;;21.40;65.30;;;;;;5025465;28;20038;-64
2023/06/20 00:46:22;;;;;;;6.82;4.30;;;21.50;65.60;;;;;;5023946;28;20029;-65
2023/06/20 00:48:48;;;;;;;5.45;4.75;;;21.40;66.50;;;;;;5027246;28;20037;-64
2023/06/20 00:51:15;;;;;;;4.55;4.15;;;21.50;66.70;;;;;;5030326;28;20622;-65
2023/06/20 00:53:42;;;;;;;4.93;3.90;;;21.50;67.00;;;;;;5025551;28;20041;-64
2023/06/20 00:56:09;;;;;;;5.45;4.20;;;21.50;67.30;;;;;;5027045;28;20104;-65
2023/06/20 00:58:34;;;;;;;4.32;4.00;;;21.50;68.00;;;;;;5030105;28;20029;-65
2023/06/20 01:01:00;;;;;;;5.35;4.25;;;21.50;68.10;;;;;;5027700;28;20044;-65
2023/06/20 01:03:26;;;;;;;4.82;4.28;;;21.50;68.60;;;;;;5027805;28;20057;-65
2023/06/20 01:06:04;;;;;;;5.03;4.57;;;21.50;68.50;;;;;;5031290;28;20033;-65
2023/06/20 01:09:01;;;;;;;7.07;4.43;;;21.50;70.00;;;;;;5033146;28;20148;-64
2023/06/20 01:11:42;;;;;;;5.25;4.75;;;21.50;70.20;;;;;;5025542;28;20401;-65
2023/06/20 01:14:42;;;;;;;4.82;4.43;;;21.50;70.90;;;;;;5029257;28;20073;-64
2023/06/20 01:17:19;;;;;;;5.18;4.68;;;21.40;71.30;;;;;;5035767;28;20443;-64
2023/06/20 01:20:25;;;;;;;4.63;4.22;;;21.40;70.90;;;;;;5029474;28;20083;-64
2023/06/20 01:23:04;;;;;;;4.35;4.03;;;21.30;72.30;;;;;;5032403;28;20139;-64
2023/06/20 01:25:40;;;;;;;4.45;4.15;;;21.30;71.40;;;;;;5028598;28;20079;-64
2023/06/20 01:28:23;;;;;;;4.10;3.70;;;21.30;72.10;;;;;;5028843;28;20041;-64
2023/06/20 01:30:55;;;;;;;6.22;4.18;;;21.30;72.10;;;;;;5027053;28;20029;-65
2023/06/20 01:33:28;;;;;;;3.72;3.42;;;21.30;72.30;;;;;;5028423;28;20065;-64
2023/06/20 01:35:55;;;;;;;3.75;3.33;;;21.30;73.20;;;;;;5029444;28;20044;-64
2023/06/20 01:38:26;;;;;;;5.30;3.58;;;21.30;73.40;;;;;;5031212;28;20121;-64
2023/06/20 01:40:53;;;;;;;3.28;2.97;;;21.30;73.70;;;;;;5029332;28;20033;-62
2023/06/20 01:43:20;;;;;;;3.75;3.20;;;21.30;73.70;;;;;;5029826;28;20034;-63
2023/06/20 01:45:47;;;;;;;3.80;3.20;;;21.20;74.30;;;;;;5027337;28;20036;-64
2023/06/20 01:48:15;;;;;;;3.10;2.75;;;21.20;74.60;;;;;;5031762;28;20025;-63
2023/06/20 01:50:41;;;;;;;3.45;3.15;;;21.20;75.10;;;;;;5032314;28;20295;-64
2023/06/20 01:53:08;;;;;;;4.32;3.00;;;21.20;75.60;;;;;;5031162;28;20085;-64
2023/06/20 01:55:36;;;;;;;3.75;3.05;;;21.10;75.40;;;;;;5027354;28;20029;-62
2023/06/20 01:58:03;;;;;;;3.80;3.00;;;21.10;75.70;;;;;;5027496;28;20124;-63
2023/06/20 02:00:29;;;;;;;3.17;2.60;;;21.10;76.00;;;;;;5030108;28;20099;-59
2023/06/20 02:02:59;;;;;;;3.17;2.58;;;21.00;76.30;;;;;;5029246;28;20060;-62
2023/06/20 02:05:29;;;;;;;3.53;2.97;;;21.00;77.00;;;;;;5028496;28;20033;-63
2023/06/20 02:07:55;;;;;;;3.38;2.78;;;21.00;77.10;;;;;;5031769;28;20033;-62
2023/06/20 02:10:21;;;;;;;5.40;2.95;;;21.00;77.30;;;;;;5028288;28;20029;-61
2023/06/20 02:12:50;;;;;;;3.97;2.65;;;21.00;77.50;;;;;;5023499;28;20492;-63
2023/06/20 02:15:17;;;;;;;3.60;2.80;;;21.00;77.50;;;;;;5031179;28;20033;-63
2023/06/20 02:17:45;;;;;;;3.00;2.70;;;20.90;77.70;;;;;;5027239;28;20638;-62
2023/06/20 02:20:11;;;;;;;3.53;2.63;;;21.00;78.00;;;;;;5031342;28;20041;-60
2023/06/20 02:22:41;;;;;;;4.18;2.70;;;20.90;78.20;;;;;;5030552;28;20959;-60
2023/06/20 02:25:09;;;;;;;3.30;2.28;;;20.90;78.20;;;;;;5030522;28;20041;-62
2023/06/20 02:27:39;;;;;;;3.20;2.22;;;20.90;77.90;;;;;;5027897;28;20057;-62
2023/06/20 02:30:08;;;;;;;3.95;2.15;;;20.90;78.40;;;;;;5026767;28;20079;-61
2023/06/20 02:32:36;;;;;;;2.83;2.30;;;20.90;78.00;;;;;;5031529;28;20451;-63
2023/06/20 02:35:04;;;;;;;2.85;2.10;;;20.90;78.00;;;;;;5031868;28;20037;-62
2023/06/20 02:37:33;;;;;;;2.17;2.00;;;20.90;77.80;;;;;;5035867;28;20052;-63
2023/06/20 02:39:58;;;;;;;2.75;1.92;;;20.90;77.70;;;;;;5033593;28;20455;-63
2023/06/20 02:42:24;;;;;;;2.15;1.60;;;20.90;77.70;;;;;;5034676;28;20040;-63
2023/06/20 02:44:50;;;;;;;2.65;1.90;;;20.90;77.80;;;;;;5034419;28;20044;-63
2023/06/20 02:47:18;;;;;;;2.92;1.77;;;21.00;77.90;;;;;;5028351;28;20059;-62
2023/06/20 02:49:58;;;;;;;2.10;1.80;;;21.00;77.90;;;;;;5030074;28;20047;-63
2023/06/20 02:52:40;;;;;;;2.00;1.65;;;21.00;77.50;;;;;;5032274;28;20391;-63
2023/06/20 02:55:17;;;;;;;3.22;1.70;;;21.10;77.80;;;;;;5027920;28;20037;-63
2023/06/20 02:57:55;;;;;;;1.90;1.80;;;21.20;78.00;;;;;;5028385;28;20124;-61
2023/06/20 03:00:22;;;;;;;2.22;1.80;;;21.20;78.20;;;;;;5025818;28;20037;-62
2023/06/20 03:02:51;;;;;;;2.75;1.70;;;21.20;76.80;;;;;;5029592;28;20056;-62
2023/06/20 03:05:19;;;;;;;1.95;1.80;;;21.20;77.10;;;;;;5029633;28;20029;-63
2023/06/20 03:07:45;;;;;;;1.92;1.63;;;21.20;76.80;;;;;;5028481;28;20489;-59
2023/06/20 03:10:11;;;;;;;2.33;1.83;;;21.30;76.90;;;;;;5028251;28;20041;-61
2023/06/20 03:12:38;;;;;;;1.67;1.58;;;21.30;77.70;;;;;;5027436;28;20041;-63
2023/06/20 03:15:04;;;;;;;2.13;1.80;;;21.30;77.00;;;;;;5026593;28;20044;-62
2023/06/20 03:17:29;;;;;;;3.28;1.75;;;21.20;76.60;;;;;;5034344;28;20037;-63
2023/06/20 03:19:55;;;;;;;1.73;1.63;;;21.20;76.30;;;;;;5024962;28;20109;-63
2023/06/20 03:22:21;;;;;;;2.75;1.77;;;21.20;76.50;;;;;;5031389;28;20119;-63
2023/06/20 03:24:47;;;;;;;3.10;1.95;;;21.20;76.50;;;;;;5032496;28;20040;-63
2023/06/20 03:27:13;;;;;;;3.50;2.00;;;21.20;76.60;;;;;;5030979;28;20056;-63
2023/06/20 03:29:39;;;;;;;2.35;1.80;;;21.10;76.80;;;;;;5026689;28;20128;-64
2023/06/20 03:32:05;;;;;;;3.40;2.10;;;21.00;76.90;;;;;;5028641;28;20045;-61
2023/06/20 03:34:30;;;;;;;2.10;1.90;;;21.00;77.00;;;;;;5028606;28;20068;-64
2023/06/20 03:36:56;;;;;;;2.83;2.10;;;21.00;77.20;;;;;;5030495;28;20048;-61
2023/06/20 03:39:21;;;;;;;2.40;2.20;;;21.00;77.20;;;;;;5031795;28;20029;-62
2023/06/20 03:41:47;;;;;;;2.45;2.25;;;21.00;77.20;;;;;;5031811;28;20527;-61
2023/06/20 03:44:13;;;;;;;3.10;2.38;;;20.90;77.30;;;;;;5026382;28;20042;-62
2023/06/20 03:46:38;;;;;;;3.90;2.40;;;20.80;77.20;;;;;;5027592;28;20035;-64
2023/06/20 03:49:04;;;;;;;3.05;2.80;;;20.90;77.30;;;;;;5026953;28;20025;-63
2023/06/20 03:51:29;;;;;;;3.00;2.67;;;20.90;77.50;;;;;;5026193;28;20517;-63
2023/06/20 03:53:55;;;;;;;3.35;2.88;;;20.90;77.70;;;;;;5030482;28;20095;-62
2023/06/20 03:56:20;;;;;;;3.47;3.05;;;20.90;77.90;;;;;;5032930;28;20041;-63
2023/06/20 03:58:46;;;;;;;3.28;3.05;;;20.90;78.00;;;;;;5027142;28;20029;-62
2023/06/20 04:01:13;;;;;;;3.42;2.88;;;20.90;78.10;;;;;;5025928;28;20129;-62
2023/06/20 04:03:38;;;;;;;3.30;3.00;;;20.80;78.10;;;;;;5026011;28;20475;-65
2023/06/20 04:06:04;;;;;;;3.83;3.47;;;20.80;78.40;;;;;;5029293;28;20102;-63
2023/06/20 04:08:30;;;;;;;3.90;3.03;;;20.90;78.50;;;;;;5028610;28;20041;-63
2023/06/20 04:10:58;;;;;;;3.53;3.22;;;20.80;78.60;;;;;;5025088;28;20709;-63
2023/06/20 04:13:24;;;;;;;3.50;3.20;;;20.80;79.00;;;;;;5024412;28;20534;-63
2023/06/20 04:15:49;;;;;;;3.35;3.05;;;20.90;78.90;;;;;;5030005;28;20258;-63
2023/06/20 04:18:15;;;;;;;3.72;3.42;;;20.90;78.90;;;;;;5029885;28;20106;-63
2023/06/20 04:20:41;;;;;;;3.20;3.00;;;20.90;79.10;;;;;;5024207;28;20041;-62
2023/06/20 04:23:07;;;;;;;3.63;3.33;;;20.80;79.10;;;;;;5024449;28;20079;-63
2023/06/20 04:25:34;;;;;;;3.70;3.33;;;20.80;79.00;;;;;;5026521;28;20476;-63
2023/06/20 04:28:01;;;;;;;3.40;3.13;;;20.80;79.30;;;;;;5022081;28;20088;-62
2023/06/20 04:30:27;;;;;;;3.70;3.40;;;20.80;79.50;;;;;;5017422;28;20072;-63
2023/06/20 04:32:53;;;;;;;4.03;3.15;;;20.80;79.30;;;;;;5030646;28;20033;-62
2023/06/20 04:35:20;;;;;;;3.50;3.20;;;20.90;79.50;;;;;;5033496;28;20028;-63
2023/06/20 04:37:51;;;;;;;3.60;3.30;;;20.80;79.60;;;;;;5035607;28;20029;-63
2023/06/20 04:40:16;;;;;;;3.35;3.15;;;20.90;79.90;;;;;;5035308;28;20505;-63
2023/06/20 04:42:42;;;;;;;3.60;3.30;;;20.90;79.80;;;;;;5034603;28;20036;-63
2023/06/20 04:45:08;;;;;;;4.47;3.25;;;20.90;80.00;;;;;;5035226;28;20493;-63
2023/06/20 04:47:34;;;;;;;3.58;3.28;;;21.00;80.00;;;;;;5032681;28;20080;-64
2023/06/20 04:50:03;;;;;;;3.50;3.20;;;21.00;80.10;;;;;;5033829;28;20496;-63
2023/06/20 04:52:31;;;;;;;3.70;3.40;;;21.00;80.10;;;;;;5031562;28;20037;-63
2023/06/20 04:55:03;;;;;;;3.35;3.08;;;21.10;80.30;;;;;;5032482;28;20340;-63
2023/06/20 04:57:33;;;;;;;3.72;3.42;;;21.10;80.00;;;;;;5033569;28;20073;-62
2023/06/20 04:59:59;;;;;;;4.00;3.40;;;21.20;80.10;;;;;;5033515;28;20128;-63
2023/06/20 05:02:25;;;;;;;4.03;3.50;;;21.20;79.80;;;;;;5031077;28;20124;-64
2023/06/20 05:04:52;;;;;;;3.75;3.45;;;21.30;79.90;;;;;;5030612;28;20509;-63
2023/06/20 05:07:18;;;;;;;3.92;3.53;;;21.30;79.90;;;;;;5033447;28;20038;-63
2023/06/20 05:09:43;;;;;;;3.95;3.55;;;21.40;80.00;;;;;;5032979;28;20037;-63
2023/06/20 05:12:09;;;;;;;4.38;3.97;;;21.40;80.00;;;;;;5031306;28;20268;-62
2023/06/20 05:14:35;;;;;;;5.05;3.78;;;21.40;80.20;;;;;;5033136;28;20065;-63
2023/06/20 05:17:01;;;;;;;4.45;3.85;;;21.50;80.10;;;;;;5033179;28;20496;-63
2023/06/20 05:19:26;;;;;;;5.07;3.97;;;21.50;80.10;;;;;;5032604;28;20493;-63
2023/06/20 05:21:52;;;;;;;11.43;4.57;;;21.50;80.30;;;;;;5033549;28;20340;-64
2023/06/20 05:24:18;;;;;;;8.57;4.78;;;21.60;80.50;;;;;;5030766;28;20796;-63
2023/06/20 05:26:43;;;;;;;4.97;4.40;;;21.60;80.50;;;;;;5033053;28;20048;-63
2023/06/20 05:29:09;;;;;;;8.45;4.22;;;21.60;80.60;;;;;;5033498;28;20044;-62
2023/06/20 05:31:42;;;;;;;7.28;4.50;;;21.70;80.60;;;;;;5033670;28;20394;-63
2023/06/20 05:34:07;;;;;;;8.73;4.50;;;21.70;80.80;;;;;;5031419;28;20119;-63
2023/06/20 05:36:33;;;;;;;5.97;4.20;;;21.80;80.30;;;;;;5031323;28;20435;-63
2023/06/20 05:38:58;;;;;;;4.40;4.00;;;21.80;80.30;;;;;;5031981;28;20119;-64
2023/06/20 05:41:25;;;;;;;6.10;4.70;;;21.90;80.00;;;;;;5033807;28;20168;-63
2023/06/20 05:43:51;;;;;;;6.00;5.13;;;22.00;80.00;;;;;;5035409;28;20132;-63
2023/06/20 05:46:16;;;;;;;4.70;4.10;;;22.10;79.70;;;;;;5036862;28;20489;-63
2023/06/20 05:48:43;;;;;;;4.85;4.45;;;22.20;79.60;;;;;;5035683;28;20041;-63
2023/06/20 05:51:18;;;;;;;5.28;4.40;;;22.20;79.50;;;;;;5036709;28;20093;-63
2023/06/20 05:53:44;;;;;;;5.00;4.50;;;22.30;80.10;;;;;;5034225;28;20090;-64
2023/06/20 05:56:09;;;;;;;4.45;4.05;;;22.40;79.50;;;;;;5034445;28;20037;-64
2023/06/20 05:58:38;;;;;;;4.70;4.32;;;22.50;79.30;;;;;;5036333;28;20554;-64
2023/06/20 06:01:04;;;;;;;4.80;4.30;;;22.50;78.90;;;;;;5035466;28;20112;-63
2023/06/20 06:03:33;;;;;;;5.18;4.15;;;22.60;78.70;;;;;;5033067;28;20137;-64
2023/06/20 06:05:59;;;;;;;4.43;3.97;;;22.70;78.70;;;;;;5035008;28;20028;-64
2023/06/20 06:08:25;;;;;;;5.00;4.05;;;22.70;78.10;;;;;;5036102;28;20033;-64
2023/06/20 06:10:52;;;;;;;4.05;3.65;;;22.80;77.90;;;;;;5035027;28;20046;-64
2023/06/20 06:13:17;;;;;;;6.75;4.22;;;22.80;77.70;;;;;;5033044;28;20029;-64
2023/06/20 06:15:43;;;;;;;4.35;3.95;;;22.90;77.80;;;;;;5035098;28;20034;-64
2023/06/20 06:18:09;;;;;;;4.40;4.00;;;23.00;77.50;;;;;;5035032;28;20041;-63
2023/06/20 06:20:34;;;;;;;4.28;3.88;;;23.00;77.20;;;;;;5036269;28;20043;-64
2023/06/20 06:23:00;;;;;;;3.97;3.67;;;23.10;76.80;;;;;;5033356;28;20468;-64
2023/06/20 06:25:25;;;;;;;4.78;3.90;;;23.10;76.70;;;;;;5035226;28;20030;-62
2023/06/20 06:27:52;;;;;;;4.97;4.30;;;23.20;76.60;;;;;;5033903;28;20616;-64
2023/06/20 06:30:17;;;;;;;4.20;3.90;;;23.20;76.50;;;;;;5034539;28;21792;-63
2023/06/20 06:32:47;;;;;;;4.25;3.85;;;23.30;76.30;;;;;;5035229;28;20048;-63
2023/06/20 06:35:15;;;;;;;5.65;4.30;;;23.30;76.30;;;;;;5036043;28;20124;-64
2023/06/20 06:37:40;;;;;;;4.18;3.78;;;23.40;76.10;;;;;;5038048;28;20572;-64
2023/06/20 06:40:09;;;;;;;4.32;4.03;;;23.40;76.00;;;;;;5037166;28;20124;-63
2023/06/20 06:42:35;;;;;;;4.90;4.00;;;23.50;75.80;;;;;;5036816;28;20516;-64
2023/06/20 06:45:00;;;;;;;4.43;4.03;;;23.60;75.40;;;;;;5037014;28;20049;-64
2023/06/20 06:47:26;;;;;;;3.88;3.58;;;23.60;75.10;;;;;;5037823;28;20546;-64
2023/06/20 06:49:51;;;;;;;4.18;3.78;;;23.70;74.90;;;;;;5034125;28;20076;-64
2023/06/20 06:52:17;;;;;;;5.70;3.83;;;23.80;74.70;;;;;;5032855;28;20041;-65
2023/06/20 06:54:43;;;;;;;3.88;3.58;;;23.80;74.70;;;;;;5033430;28;20048;-64
2023/06/20 06:57:09;;;;;;;4.43;4.03;;;23.90;74.60;;;;;;5032120;28;20502;-64
2023/06/20 06:59:34;;;;;;;6.82;4.18;;;23.90;74.60;;;;;;5033058;28;20033;-64
2023/06/20 07:02:00;;;;;;;4.00;3.60;;;24.00;74.70;;;;;;5032328;28;20044;-64
2023/06/20 07:04:26;;;;;;;4.53;4.00;;;24.10;74.30;;;;;;5035055;28;20029;-64
2023/06/20 07:06:51;;;;;;;3.67;3.38;;;24.10;74.10;;;;;;5032770;28;20041;-63
2023/06/20 07:09:17;;;;;;;3.72;3.30;;;24.10;74.10;;;;;;5035743;28;20428;-64
2023/06/20 07:11:43;;;;;;;3.28;2.88;;;24.20;73.50;;;;;;5033494;28;20040;-63
2023/06/20 07:14:08;;;;;;;5.68;3.60;;;24.30;73.30;;;;;;5031287;28;20446;-64
2023/06/20 07:16:34;;;;;;;4.82;3.28;;;24.30;72.80;;;;;;5030504;28;20025;-64
2023/06/20 07:18:59;;;;;;;3.55;3.25;;;24.40;72.40;;;;;;5033533;28;20106;-64
2023/06/20 07:21:26;;;;;;;6.53;3.30;;;24.40;72.20;;;;;;5034255;28;20136;-64
2023/06/20 07:23:52;;;;;;;3.53;3.22;;;24.50;71.40;;;;;;5036250;28;20036;-64
2023/06/20 07:26:17;;;;;;;3.67;3.38;;;24.60;71.10;;;;;;5033811;28;20405;-64
2023/06/20 07:28:43;;;;;;;4.85;3.25;;;24.60;70.90;;;;;;5032881;28;20041;-64
2023/06/20 07:31:16;;;;;;;3.92;3.28;;;24.70;71.10;;;;;;5032925;28;20025;-64
2023/06/20 07:33:41;;;;;;;3.78;3.42;;;24.70;70.50;;;;;;5031997;28;20091;-64
2023/06/20 07:36:10;;;;;;;3.33;3.03;;;24.80;70.30;;;;;;5032965;28;20045;-64
2023/06/20 07:38:35;;;;;;;3.65;2.75;;;24.90;70.40;;;;;;5033730;28;20033;-64
2023/06/20 07:41:01;;;;;;;3.38;2.95;;;25.00;70.30;;;;;;5034709;28;20501;-64
2023/06/20 07:43:27;;;;;;;4.03;2.92;;;25.00;69.70;;;;;;5034801;28;20025;-64
2023/06/20 07:45:52;;;;;;;5.25;3.03;;;25.10;69.20;;;;;;5032666;28;20034;-65
2023/06/20 07:48:18;;;;;;;3.25;2.90;;;25.20;69.30;;;;;;5034193;28;20059;-65
2023/06/20 07:50:43;;;;;;;3.90;2.90;;;25.30;68.90;;;;;;5032920;28;20625;-64
2023/06/20 07:53:09;;;;;;;3.72;2.97;;;25.40;68.40;;;;;;5032713;28;20030;-64
2023/06/20 07:55:34;;;;;;;3.38;2.70;;;25.50;68.30;;;;;;5032150;28;20454;-64
2023/06/20 07:58:00;;;;;;;3.15;2.65;;;25.60;67.60;;;;;;5034896;28;20695;-65
2023/06/20 08:00:27;;;;;;;4.22;2.60;;;25.70;67.10;;;;;;5032738;28;20527;-64
2023/06/20 08:02:53;;;;;;;4.35;2.33;;;25.70;66.60;;;;;;5025827;28;20033;-63
2023/06/20 08:05:18;;;;;;;4.32;2.75;;;25.80;66.30;;;;;;5035097;28;20036;-64
2023/06/20 08:07:44;;;;;;;6.82;3.38;;;25.90;66.10;;;;;;5036397;28;20025;-64
2023/06/20 08:10:10;;;;;;;3.63;2.67;;;26.00;65.90;;;;;;5033888;28;20095;-64
2023/06/20 08:12:37;;;;;;;3.05;2.83;;;26.00;65.50;;;;;;5029649;28;20768;-65
2023/06/20 08:15:02;;;;;;;3.17;2.88;;;26.20;65.80;;;;;;5032608;28;20037;-64
2023/06/20 08:17:28;;;;;;;3.33;2.70;;;26.30;65.60;;;;;;5032868;28;20479;-65
2023/06/20 08:19:54;;;;;;;2.78;2.50;;;26.40;65.50;;;;;;5034420;28;20061;-64
2023/06/20 08:22:19;;;;;;;2.53;2.25;;;26.50;65.00;;;;;;5033605;28;20043;-65
2023/06/20 08:24:45;;;;;;;2.33;2.13;;;26.60;64.00;;;;;;5033418;28;20553;-65
2023/06/20 08:27:10;;;;;;;3.92;2.60;;;26.70;63.80;;;;;;5034800;28;20412;-64
2023/06/20 08:29:36;;;;;;;3.35;2.40;;;26.80;63.60;;;;;;5034229;28;20029;-65
2023/06/20 08:32:02;;;;;;;4.40;2.58;;;26.90;63.50;;;;;;5031145;28;20093;-64
2023/06/20 08:34:27;;;;;;;4.72;2.60;;;27.00;63.10;;;;;;5034881;28;20040;-63
2023/06/20 08:36:53;;;;;;;2.72;2.33;;;27.10;62.60;;;;;;5036361;28;20497;-64
2023/06/20 08:39:19;;;;;;;2.95;2.60;;;27.20;62.60;;;;;;5036732;28;20060;-64
2023/06/20 08:41:45;;;;;;;3.33;2.75;;;27.30;61.70;;;;;;5036213;28;21030;-64
2023/06/20 08:44:11;;;;;;;3.63;2.40;;;27.50;61.20;;;;;;5036333;28;20403;-64
2023/06/20 08:46:37;;;;;;;5.38;2.60;;;27.50;61.10;;;;;;5036852;28;20057;-64
2023/06/20 08:49:03;;;;;;;3.55;2.60;;;27.60;59.90;;;;;;5033235;28;20116;-64
2023/06/20 08:51:30;;;;;;;3.67;2.65;;;27.70;59.80;;;;;;5035292;28;20037;-64
2023/06/20 08:53:58;;;;;;;6.13;2.50;;;27.80;59.60;;;;;;5033935;28;20127;-65
2023/06/20 08:56:24;;;;;;;2.72;2.20;;;27.90;59.20;;;;;;5034176;28;20053;-65
2023/06/20 08:58:49;;;;;;;2.55;2.05;;;28.00;58.70;;;;;;5033793;28;20033;-65
2023/06/20 09:01:15;;;;;;;5.80;2.30;;;28.10;58.30;;;;;;5032789;28;20049;-64
2023/06/20 09:03:40;;;;;;;4.60;2.45;;;28.30;58.10;;;;;;5033827;28;20060;-64
2023/06/20 09:06:06;;;;;;;2.75;2.40;;;28.40;57.80;;;;;;5032501;28;20696;-64
2023/06/20 09:08:37;;;;;;;3.38;2.15;;;28.50;57.20;;;;;;5033906;28;20044;-65
2023/06/20 09:11:07;;;;;;;5.03;2.20;;;28.60;57.10;;;;;;5032573;28;20029;-65
2023/06/20 09:13:32;;;;;;;3.10;2.33;;;28.80;56.50;;;;;;5030893;28;20489;-62
2023/06/20 09:16:05;;;;;;;7.93;2.30;;;28.90;56.80;;;;;;5035077;28;20041;-64
2023/06/20 09:18:33;;;;;;;3.30;2.22;;;29.00;56.30;;;;;;5036011;28;20056;-64
2023/06/20 09:20:58;;;;;;;4.90;2.25;;;29.10;56.10;;;;;;5037132;28;20120;-64
2023/06/20 09:23:29;;;;;;;3.05;2.30;;;29.20;55.30;;;;;;5036713;28;20116;-64
2023/06/20 09:25:56;;;;;;;4.95;2.28;;;29.30;55.00;;;;;;5038006;28;20037;-63
2023/06/20 09:28:22;;;;;;;3.47;2.30;;;29.40;54.80;;;;;;5037797;28;20036;-65
2023/06/20 09:30:48;;;;;;;4.45;2.63;;;29.50;54.70;;;;;;5037931;28;20037;-64
2023/06/20 09:33:15;;;;;;;4.90;2.10;;;29.60;54.40;;;;;;5033878;28;20032;-64
2023/06/20 09:35:41;;;;;;;2.65;2.00;;;29.70;54.00;;;;;;5036673;28;20496;-65
2023/06/20 09:38:07;;;;;;;5.03;2.60;;;29.80;54.00;;;;;;5036652;28;20072;-64
2023/06/20 09:40:43;;;;;;;15.48;3.00;;;29.90;53.50;;;;;;5034969;28;20440;-64
2023/06/20 09:43:08;;;;;;;2.60;2.25;;;30.00;52.60;;;;;;5034807;28;20136;-65
2023/06/20 09:45:34;;;;;;;4.15;2.33;;;30.10;52.60;;;;;;5037702;28;20551;-65
2023/06/20 09:48:00;;;;;;;3.58;2.40;;;30.20;52.70;;;;;;5037954;28;20041;-65
2023/06/20 09:50:28;;;;;;;5.22;2.53;;;30.20;52.10;;;;;;5038326;28;20041;-64
2023/06/20 09:53:16;;;;;;;6.05;2.30;;;30.30;51.50;;;;;;5035298;28;20316;-65
2023/06/20 09:55:42;;;;;;;2.60;2.20;;;30.40;51.50;;;;;;5037433;28;20084;-65
2023/06/20 09:58:10;;;;;;;3.00;2.42;;;30.50;51.80;;;;;;5036207;28;20048;-65
2023/06/20 10:00:37;;;;;;;3.42;2.63;;;30.60;51.20;;;;;;5036554;28;20397;-65
2023/06/20 10:03:09;;;;;;;6.72;2.50;;;30.60;50.30;;;;;;5036219;28;20041;-65
2023/06/20 10:05:35;;;;;;;4.13;2.60;;;30.70;49.90;;;;;;5036497;28;20033;-64
2023/06/20 10:08:02;;;;;;;4.43;2.63;;;30.80;50.40;;;;;;5037078;28;20045;-65
2023/06/20 10:10:27;;;;;;;4.80;2.70;;;30.90;50.30;;;;;;5034332;28;20524;-64
2023/06/20 10:12:55;;;;;;;4.93;2.08;;;30.90;49.70;;;;;;5036746;28;20055;-64
2023/06/20 10:15:21;;;;;;;3.45;2.78;;;31.00;48.40;;;;;;5036860;28;20290;-64
2023/06/20 10:17:47;;;;;;;3.25;2.45;;;31.10;47.90;;;;;;5035625;28;20033;-65
2023/06/20 10:20:27;;;;;;;4.50;2.78;;;31.10;48.50;;;;;;5035860;28;20082;-65
2023/06/20 10:22:58;;;;;;;4.90;2.45;;;31.20;46.90;;;;;;5036583;28;20084;-64
2023/06/20 10:25:26;;;;;;;5.20;2.20;;;31.30;46.70;;;;;;5036385;28;20095;-65
2023/06/20 10:27:55;;;;;;;3.20;2.67;;;31.20;46.80;;;;;;5035942;28;20075;-65
2023/06/20 10:30:46;;;;;;;3.92;2.70;;;31.30;46.50;;;;;;5035413;28;20455;-65
2023/06/20 10:33:12;;;;;;;3.72;2.30;;;31.30;44.40;;;;;;5033168;28;20123;-65
2023/06/20 10:35:53;;;;;;;5.78;2.50;;;31.30;45.50;;;;;;5038457;28;20029;-65
2023/06/20 10:38:19;;;;;;;4.50;2.47;;;31.30;44.30;;;;;;5037942;28;20562;-65
2023/06/20 10:40:44;;;;;;;4.22;2.55;;;31.30;45.80;;;;;;5035449;28;20025;-65
2023/06/20 10:43:18;;;;;;;2.67;2.47;;;31.40;45.50;;;;;;5034962;28;20119;-65
2023/06/20 10:45:57;;;;;;;5.68;2.00;;;31.40;44.30;;;;;;5036824;28;20079;-65
2023/06/20 10:48:23;;;;;;;4.63;2.55;;;31.40;43.70;;;;;;5036000;28;20068;-65
2023/06/20 10:50:49;;;;;;;5.75;2.60;;;31.40;44.40;;;;;;5035318;28;20048;-64
2023/06/20 10:53:15;;;;;;;5.10;2.53;;;31.40;44.50;;;;;;5036397;28;20049;-65
2023/06/20 10:55:40;;;;;;;3.47;2.30;;;31.50;44.80;;;;;;5036087;28;20033;-65
2023/06/20 10:58:06;;;;;;;3.65;2.38;;;31.50;44.90;;;;;;5036677;28;20111;-65
2023/06/20 11:00:32;;;;;;;3.50;2.50;;;31.60;44.30;;;;;;5037307;28;20036;-65
2023/06/20 11:02:57;;;;;;;5.65;2.70;;;31.70;44.00;;;;;;5035474;28;20048;-64
2023/06/20 11:05:28;;;;;;;3.42;2.35;;;31.80;44.00;;;;;;5036292;28;20176;-65
2023/06/20 11:08:04;;;;;;;6.32;2.50;;;31.80;42.80;;;;;;5035853;28;20048;-66
2023/06/20 11:10:35;;;;;;;5.18;2.50;;;31.90;43.10;;;;;;5035812;28;20034;-65
2023/06/20 11:13:03;;;;;;;4.32;2.50;;;32.00;42.90;;;;;;5036825;28;20036;-65
2023/06/20 11:15:34;;;;;;;4.47;2.50;;;32.00;43.20;;;;;;5034572;28;20095;-65
2023/06/20 11:18:04;;;;;;;3.88;2.50;;;32.00;42.00;;;;;;5037018;28;20131;-65
2023/06/20 11:20:35;;;;;;;8.57;2.50;;;32.10;42.00;;;;;;5037298;28;20034;-65
2023/06/20 11:23:03;;;;;;;4.32;2.17;;;32.00;42.00;;;;;;5037847;28;20413;-65
2023/06/20 11:25:31;;;;;;;5.75;2.70;;;32.10;42.40;;;;;;5037483;28;20129;-65
2023/06/20 11:28:04;;;;;;;6.30;2.67;;;32.20;42.10;;;;;;5037559;28;20524;-66
2023/06/20 11:30:31;;;;;;;3.92;2.13;;;32.20;41.60;;;;;;5037045;28;20037;-65
2023/06/20 11:32:58;;;;;;;13.88;3.20;;;32.30;41.90;;;;;;5036298;28;20034;-64
2023/06/20 11:35:23;;;;;;;7.75;2.38;;;32.30;41.70;;;;;;5036256;28;20084;-66
2023/06/20 11:37:50;;;;;;;6.80;2.30;;;32.30;42.20;;;;;;5036009;28;20026;-65
2023/06/20 11:40:15;;;;;;;5.55;2.42;;;32.40;42.00;;;;;;5035885;28;20045;-66
2023/06/20 11:42:41;;;;;;;11.90;2.50;;;32.50;41.40;;;;;;5035591;28;20038;-65
2023/06/20 11:45:08;;;;;;;5.68;2.60;;;32.50;41.80;;;;;;5034709;28;20037;-65
2023/06/20 11:47:34;;;;;;;5.95;2.47;;;32.60;41.50;;;;;;5036297;28;20044;-65
2023/06/20 11:49:59;;;;;;;5.65;2.53;;;32.80;41.10;;;;;;5034518;28;20038;-65
2023/06/20 11:52:32;;;;;;;5.60;2.22;;;32.80;41.20;;;;;;5033063;28;20048;-65
2023/06/20 11:54:58;;;;;;;6.00;2.63;;;32.80;40.50;;;;;;5033578;28;20044;-64
2023/06/20 11:57:28;;;;;;;7.43;2.88;;;32.90;40.70;;;;;;5033260;28;20029;-65
2023/06/20 12:00:14;;;;;;;4.45;2.33;;;32.90;39.60;;;;;;5034796;28;20559;-65
2023/06/20 12:02:40;;;;;;;3.67;2.38;;;32.90;39.60;;;;;;5031910;28;20455;-64
2023/06/20 12:05:06;;;;;;;3.78;2.17;;;32.90;40.00;;;;;;5032848;28;20094;-66
2023/06/20 12:07:47;;;;;;;5.88;2.47;;;32.90;40.30;;;;;;5034587;28;20400;-66
2023/06/20 12:10:14;;;;;;;6.57;2.40;;;32.80;38.70;;;;;;5032708;28;20439;-66
2023/06/20 12:12:42;;;;;;;5.03;2.40;;;32.90;40.30;;;;;;5029596;28;20112;-65
2023/06/20 12:15:09;;;;;;;4.90;2.65;;;32.90;39.40;;;;;;5033052;28;20045;-65
2023/06/20 12:17:35;;;;;;;6.00;2.60;;;32.90;39.40;;;;;;5034146;28;20039;-66
2023/06/20 12:20:01;;;;;;;5.03;2.55;;;32.90;40.10;;;;;;5036036;28;20048;-65
2023/06/20 12:22:28;;;;;;;5.63;2.40;;;32.90;39.70;;;;;;5036569;28;20052;-66
2023/06/20 12:24:54;;;;;;;8.18;3.00;;;32.90;40.20;;;;;;5035956;28;20393;-66
2023/06/20 12:27:20;;;;;;;4.05;2.40;;;32.90;39.60;;;;;;5034907;28;20220;-64
2023/06/20 12:29:46;;;;;;;6.35;2.50;;;33.00;39.30;;;;;;5034275;28;20036;-65
2023/06/20 12:32:11;;;;;;;4.80;2.60;;;33.00;39.60;;;;;;5032950;28;20037;-65
2023/06/20 12:34:37;;;;;;;3.65;2.45;;;33.00;39.50;;;;;;5033500;28;20029;-66
2023/06/20 12:37:02;;;;;;;7.90;2.60;;;33.00;39.50;;;;;;5034499;28;20045;-64
2023/06/20 12:39:28;;;;;;;6.15;2.33;;;33.10;39.10;;;;;;5035420;28;20111;-65
2023/06/20 12:41:53;;;;;;;7.28;2.10;;;33.10;38.80;;;;;;5034155;28;20571;-66
2023/06/20 12:44:19;;;;;;;3.90;2.55;;;33.20;39.90;;;;;;5031748;28;20404;-65
2023/06/20 12:46:45;;;;;;;4.18;2.10;;;33.20;39.20;;;;;;5032357;28;20036;-65
2023/06/20 12:49:10;;;;;;;5.05;2.25;;;33.30;39.90;;;;;;5031819;28;20286;-65